Time;durP1;ratioP1;P1;durP2;ratioP2;P2;SDS_P1;SDS_P2;PMS_P1;PMS_P2;Temp;Humidity;BMP_temperature;BMP_pressure;BME280_temperature;BME280_humidity;BME280_pressure;Samples;Min_cycle;Max_cycle;Signal;HPM_P1;HPM_P2
2022/10/01 00:01:01;;;;;;;12.48;10.77;;;11.90;99.90;;;;;;6004994;23;20019;-89
2022/10/01 00:03:28;;;;;;;13.13;11.48;;;11.80;99.90;;;;;;6003044;23;20020;-89
2022/10/01 00:06:09;;;;;;;12.18;10.82;;;11.80;99.90;;;;;;6004875;23;20039;-89
2022/10/01 00:08:36;;;;;;;14.25;12.00;;;11.80;99.90;;;;;;6003846;23;20023;-90
2022/10/01 00:11:11;;;;;;;13.27;11.23;;;11.80;99.90;;;;;;6002922;23;20517;-89
2022/10/01 00:13:37;;;;;;;13.75;11.35;;;11.80;99.90;;;;;;6004941;23;20090;-90
2022/10/01 00:16:12;;;;;;;12.70;11.20;;;11.80;99.90;;;;;;6003703;23;20040;-90
2022/10/01 00:18:39;;;;;;;13.43;11.75;;;11.70;99.90;;;;;;5980420;23;20072;-89
2022/10/01 00:21:10;;;;;;;13.13;11.68;;;11.70;99.90;;;;;;6005715;23;20394;-89
2022/10/01 00:23:36;;;;;;;13.80;11.55;;;11.70;99.90;;;;;;6002424;23;20019;-90
2022/10/01 00:26:13;;;;;;;14.27;11.85;;;11.60;99.90;;;;;;6004363;23;20020;-91
2022/10/01 00:28:44;;;;;;;13.35;11.95;;;11.70;99.90;;;;;;6003871;23;20016;-90
2022/10/01 00:31:10;;;;;;;16.02;11.88;;;11.60;99.90;;;;;;6004017;23;20008;-88
2022/10/01 00:33:37;;;;;;;14.18;12.68;;;11.60;99.90;;;;;;6002610;23;20026;-89
2022/10/01 00:36:07;;;;;;;14.65;12.10;;;11.60;99.90;;;;;;6004037;23;20064;-90
2022/10/01 00:38:33;;;;;;;15.10;12.35;;;11.60;99.90;;;;;;6003202;23;20023;-89
2022/10/01 00:40:59;;;;;;;13.80;12.05;;;11.60;99.90;;;;;;6005706;23;20151;-90
2022/10/01 00:43:36;;;;;;;14.18;12.68;;;11.50;99.90;;;;;;6003458;23;20011;-89
2022/10/01 00:46:27;;;;;;;14.52;12.70;;;11.60;99.90;;;;;;6004985;23;20063;-89
2022/10/01 00:48:57;;;;;;;;;;;11.50;99.90;;;;;;6006193;23;20016;-89
2022/10/01 00:51:28;;;;;;;15.07;12.13;;;11.50;99.90;;;;;;6006691;23;19921;-88
2022/10/01 00:54:01;;;;;;;14.43;12.55;;;11.50;99.90;;;;;;6007477;23;20044;-88
2022/10/01 00:56:27;;;;;;;13.43;12.02;;;11.50;99.90;;;;;;6005085;23;20095;-88
2022/10/01 00:58:54;;;;;;;15.82;13.27;;;11.50;99.90;;;;;;6004617;23;20019;-89
2022/10/01 01:01:21;;;;;;;14.70;13.15;;;11.50;99.90;;;;;;6006220;23;20020;-88
2022/10/01 01:03:47;;;;;;;15.15;12.65;;;11.50;99.90;;;;;;6005354;23;20023;-89
2022/10/01 01:06:12;;;;;;;14.20;12.70;;;11.50;99.90;;;;;;6004766;23;20056;-90
2022/10/01 01:08:38;;;;;;;15.77;13.68;;;11.50;99.90;;;;;;6004485;23;20024;-88
2022/10/01 01:11:36;;;;;;;14.63;13.13;;;11.40;99.90;;;;;;6005200;23;20031;-89
2022/10/01 01:14:28;;;;;;;14.70;13.13;;;11.40;99.90;;;;;;6003298;23;20026;-89
2022/10/01 01:17:00;;;;;;;18.10;13.75;;;11.40;99.90;;;;;;6004255;23;20095;-88
2022/10/01 01:19:36;;;;;;;15.15;13.30;;;11.40;99.90;;;;;;6005873;23;20127;-89
2022/10/01 01:22:05;;;;;;;15.82;14.07;;;11.40;99.90;;;;;;6009161;23;20071;-89
2022/10/01 01:24:43;;;;;;;15.38;13.77;;;11.40;99.90;;;;;;6005863;23;20379;-88
2022/10/01 01:27:21;;;;;;;16.23;13.98;;;11.40;99.90;;;;;;6006693;23;20015;-88
2022/10/01 01:30:22;;;;;;;16.23;14.43;;;11.40;99.90;;;;;;6004960;23;20034;-89
2022/10/01 01:32:53;;;;;;;16.08;14.40;;;11.40;99.90;;;;;;5995968;23;20026;-88
2022/10/01 01:35:31;;;;;;;16.13;13.80;;;11.40;99.90;;;;;;5980891;23;20023;-87
2022/10/01 01:38:02;;;;;;;16.65;14.85;;;11.40;99.90;;;;;;6005817;23;20011;-87
2022/10/01 01:40:30;;;;;;;15.80;14.13;;;11.40;99.90;;;;;;6005344;23;20047;-88
2022/10/01 01:42:58;;;;;;;16.17;14.48;;;11.40;99.90;;;;;;6004385;23;20084;-89
2022/10/01 01:45:29;;;;;;;16.42;14.45;;;11.40;99.90;;;;;;6002987;23;20023;-89
2022/10/01 01:47:57;;;;;;;16.23;14.52;;;11.30;99.90;;;;;;6004756;23;20051;-88
2022/10/01 01:50:25;;;;;;;18.67;15.15;;;11.40;99.90;;;;;;6003742;23;20051;-86
2022/10/01 01:52:55;;;;;;;16.88;15.27;;;11.30;99.90;;;;;;6003438;23;20095;-88
2022/10/01 01:55:24;;;;;;;17.83;14.82;;;11.30;99.90;;;;;;5979704;23;20118;-88
2022/10/01 01:57:50;;;;;;;16.35;14.65;;;11.30;99.90;;;;;;6003564;23;20019;-89
2022/10/01 02:00:16;;;;;;;16.27;14.57;;;11.30;99.90;;;;;;6004848;23;20019;-88
2022/10/01 02:02:51;;;;;;;16.95;15.05;;;11.30;99.90;;;;;;6002298;23;20068;-87
2022/10/01 02:05:21;;;;;;;16.67;14.88;;;11.30;99.90;;;;;;6003276;23;20027;-87
2022/10/01 02:08:20;;;;;;;16.13;14.52;;;11.30;99.90;;;;;;6005387;23;20110;-89
2022/10/01 02:11:03;;;;;;;15.93;14.32;;;11.30;99.90;;;;;;6003016;23;20019;-87
2022/10/01 02:13:37;;;;;;;16.42;14.73;;;11.30;99.90;;;;;;6003505;23;20023;-90
2022/10/01 02:16:11;;;;;;;15.23;13.63;;;11.30;99.90;;;;;;6003231;23;20456;-88
2022/10/01 02:19:13;;;;;;;16.55;14.50;;;11.30;99.90;;;;;;6005074;23;20412;-89
2022/10/01 02:22:06;;;;;;;17.50;14.35;;;11.30;99.90;;;;;;6004233;23;20346;-89
2022/10/01 02:24:52;;;;;;;15.93;14.23;;;11.30;99.90;;;;;;6002881;23;20044;-89
2022/10/01 02:27:30;;;;;;;16.15;14.48;;;11.30;99.90;;;;;;5980481;23;20123;-89
2022/10/01 02:30:06;;;;;;;15.13;13.48;;;11.30;99.90;;;;;;6005118;23;20043;-89
2022/10/01 02:32:36;;;;;;;14.45;12.95;;;11.30;99.90;;;;;;6003292;23;20027;-90
2022/10/01 02:35:04;;;;;;;14.07;12.57;;;11.30;99.90;;;;;;6004297;23;20019;-89
2022/10/01 02:37:31;;;;;;;14.75;13.18;;;11.30;99.90;;;;;;6004344;23;20015;-91
2022/10/01 02:39:58;;;;;;;15.13;12.45;;;11.30;99.90;;;;;;6006213;23;20087;-90
2022/10/01 02:42:27;;;;;;;14.10;12.60;;;11.30;99.90;;;;;;6005287;23;20015;-92
2022/10/01 02:44:55;;;;;;;15.00;12.90;;;11.40;99.90;;;;;;5980937;23;20015;-89
2022/10/01 02:47:24;;;;;;;14.13;12.43;;;11.30;99.90;;;;;;6005955;23;20012;-91
2022/10/01 02:49:51;;;;;;;14.25;12.77;;;11.40;99.90;;;;;;6005282;23;20450;-90
2022/10/01 02:52:19;;;;;;;14.15;12.65;;;11.40;99.90;;;;;;6007716;23;20012;-90
2022/10/01 02:54:54;;;;;;;13.90;11.70;;;11.40;99.90;;;;;;6009949;23;20019;-93
2022/10/01 02:57:22;;;;;;;13.15;11.77;;;11.40;99.90;;;;;;6008959;23;20109;-91
2022/10/01 03:00:02;;;;;;;11.95;10.75;;;11.40;99.90;;;;;;6011828;23;20091;-92
2022/10/01 03:02:30;;;;;;;13.90;11.07;;;11.40;99.90;;;;;;6011299;23;20022;-92
2022/10/01 03:04:56;;;;;;;12.07;10.43;;;11.40;99.90;;;;;;6011733;23;20016;-92
2022/10/01 03:07:24;;;;;;;11.57;10.23;;;11.40;99.90;;;;;;5984370;23;20086;-91
2022/10/01 03:09:50;;;;;;;11.80;10.20;;;11.40;99.90;;;;;;5982098;23;20012;-91
2022/10/01 03:12:17;;;;;;;10.70;9.25;;;11.50;99.90;;;;;;5983286;23;20501;-93
2022/10/01 03:14:46;;;;;;;14.55;9.88;;;11.60;99.90;;;;;;6005570;23;20016;-91
2022/10/01 03:17:13;;;;;;;11.77;9.60;;;11.50;99.90;;;;;;6006933;23;20039;-91
2022/10/01 03:19:39;;;;;;;10.35;8.57;;;11.50;99.90;;;;;;6030613;23;20051;-93
2022/10/01 03:22:06;;;;;;;10.52;8.25;;;11.50;99.90;;;;;;6006795;23;20016;-90
2022/10/01 03:24:31;;;;;;;9.52;7.43;;;11.50;99.90;;;;;;6006822;23;20016;-91
2022/10/01 03:26:58;;;;;;;9.68;7.65;;;11.50;99.90;;;;;;6005487;23;20462;-93
2022/10/01 03:29:24;;;;;;;9.50;7.53;;;11.50;99.90;;;;;;6008433;23;20116;-93
2022/10/01 03:31:50;;;;;;;9.18;6.95;;;11.50;99.90;;;;;;6008925;23;20016;-91
2022/10/01 03:34:16;;;;;;;8.80;7.20;;;11.50;99.90;;;;;;6022313;23;20011;-94
2022/10/01 03:36:41;;;;;;;9.40;6.72;;;11.50;99.90;;;;;;6016892;23;20012;-92
2022/10/01 03:39:07;;;;;;;9.20;5.93;;;11.50;99.90;;;;;;6006404;23;20048;-92
2022/10/01 03:41:33;;;;;;;10.27;6.38;;;11.50;99.90;;;;;;5983720;23;20539;-95
2022/10/01 03:43:59;;;;;;;8.95;6.43;;;11.50;99.90;;;;;;6006261;23;20015;-93
2022/10/01 03:46:25;;;;;;;8.73;5.93;;;11.50;99.90;;;;;;6030646;23;20011;-92
2022/10/01 03:48:51;;;;;;;7.80;5.53;;;11.50;99.90;;;;;;6006266;23;20015;-92
2022/10/01 03:51:19;;;;;;;7.82;5.20;;;11.50;99.90;;;;;;6007070;23;20020;-94
2022/10/01 03:53:46;;;;;;;8.45;5.40;;;11.50;99.90;;;;;;6006113;23;20020;-91
2022/10/01 03:56:12;;;;;;;7.93;5.50;;;11.50;99.90;;;;;;5984913;23;20016;-91
2022/10/01 03:58:38;;;;;;;7.60;5.22;;;11.60;99.90;;;;;;6031368;23;20003;-93
2022/10/01 04:01:03;;;;;;;7.47;5.55;;;11.60;99.90;;;;;;6008333;23;20072;-93
2022/10/01 04:03:29;;;;;;;8.48;6.07;;;11.50;99.90;;;;;;6007341;23;20095;-95
2022/10/01 04:05:55;;;;;;;8.40;5.82;;;11.60;99.90;;;;;;6006034;23;20015;-88
2022/10/01 04:08:21;;;;;;;8.63;6.22;;;11.60;99.90;;;;;;6007434;23;20092;-92
2022/10/01 04:10:48;;;;;;;8.40;6.45;;;11.60;99.90;;;;;;6007171;23;20020;-91
2022/10/01 04:13:14;;;;;;;8.25;6.07;;;11.60;99.90;;;;;;6006786;23;20019;-89
2022/10/01 04:15:40;;;;;;;9.35;6.22;;;11.60;99.90;;;;;;6007374;23;20028;-91
2022/10/01 04:18:07;;;;;;;8.38;5.70;;;11.60;99.90;;;;;;6007807;23;20018;-92
2022/10/01 04:20:34;;;;;;;7.88;5.72;;;11.70;99.90;;;;;;6006757;23;20019;-93
2022/10/01 04:23:00;;;;;;;8.30;5.95;;;11.60;99.90;;;;;;6031985;23;20016;-93
2022/10/01 04:25:26;;;;;;;7.72;5.35;;;11.60;99.90;;;;;;6009883;23;20098;-95
2022/10/01 04:27:58;;;;;;;8.73;5.75;;;11.50;99.90;;;;;;6033068;23;20012;-94
2022/10/01 04:30:26;;;;;;;8.68;5.80;;;11.60;99.90;;;;;;6008642;23;20020;-92
2022/10/01 04:32:52;;;;;;;8.60;5.53;;;11.60;99.90;;;;;;6009587;23;20023;-93
2022/10/01 04:35:18;;;;;;;8.25;5.63;;;11.60;99.90;;;;;;6009332;23;20016;-94
2022/10/01 04:37:43;;;;;;;7.95;5.30;;;11.60;99.90;;;;;;6032913;23;19999;-95
2022/10/01 04:40:09;;;;;;;8.38;5.00;;;11.70;99.90;;;;;;6008416;23;20054;-95
2022/10/01 04:42:39;;;;;;;7.43;4.90;;;11.60;99.90;;;;;;6006811;23;20023;-95
2022/10/01 04:45:06;;;;;;;7.50;5.10;;;11.50;99.90;;;;;;6007216;23;20020;-94
2022/10/01 04:47:32;;;;;;;8.40;5.10;;;11.70;99.90;;;;;;5984932;23;20090;-94
2022/10/01 04:49:57;;;;;;;9.07;5.20;;;11.70;99.90;;;;;;6032600;23;20434;-95
2022/10/01 04:52:23;;;;;;;7.00;4.97;;;11.60;99.90;;;;;;6032694;23;20011;-93
2022/10/01 04:54:51;;;;;;;7.97;5.30;;;11.70;99.90;;;;;;6007919;23;20020;-93
2022/10/01 04:57:19;;;;;;;7.20;4.97;;;11.60;99.90;;;;;;6008745;23;20023;-94
2022/10/01 04:59:45;;;;;;;8.93;4.95;;;11.70;99.90;;;;;;6007834;23;20028;-94
2022/10/01 05:02:11;;;;;;;7.55;4.80;;;11.70;99.90;;;;;;6010827;23;20021;-94
2022/10/01 05:04:36;;;;;;;7.50;4.80;;;11.70;99.90;;;;;;6011954;23;20024;-94
2022/10/01 05:07:02;;;;;;;7.85;5.07;;;11.70;99.90;;;;;;6039216;23;20008;-95
2022/10/01 05:09:27;;;;;;;7.10;4.80;;;11.70;99.90;;;;;;6038187;23;20018;-93
2022/10/01 05:11:53;;;;;;;8.23;5.55;;;11.80;99.90;;;;;;5988169;23;20023;-93
2022/10/01 05:14:20;;;;;;;7.72;5.53;;;11.80;99.90;;;;;;6034453;23;20474;-96
2022/10/01 05:16:46;;;;;;;7.95;5.30;;;11.80;99.90;;;;;;6009295;23;20080;-93
2022/10/01 05:19:12;;;;;;;8.35;5.22;;;11.80;99.90;;;;;;6010020;23;20087;-92
2022/10/01 05:21:37;;;;;;;8.10;5.47;;;11.80;99.90;;;;;;6033743;23;20016;-94
2022/10/01 05:24:04;;;;;;;7.68;5.15;;;11.80;99.90;;;;;;6015487;23;20115;-94
2022/10/01 05:26:30;;;;;;;8.15;6.10;;;11.90;99.90;;;;;;6015016;23;20016;-96
2022/10/01 05:28:58;;;;;;;11.80;6.38;;;11.90;99.90;;;;;;6013404;23;20529;-93
2022/10/01 05:31:23;;;;;;;7.80;5.43;;;12.00;99.90;;;;;;6010266;23;20066;-92
2022/10/01 05:33:49;;;;;;;7.45;5.68;;;11.90;99.90;;;;;;6007795;23;20817;-92
2022/10/01 05:36:15;;;;;;;7.80;6.20;;;12.00;99.90;;;;;;6008345;23;20015;-93
2022/10/01 05:38:41;;;;;;;8.63;5.88;;;12.00;99.90;;;;;;6032529;23;20442;-92
2022/10/01 05:41:07;;;;;;;8.77;5.97;;;12.00;99.90;;;;;;6007489;23;20015;-93
2022/10/01 05:43:32;;;;;;;7.78;5.82;;;12.10;99.90;;;;;;6007466;23;20012;-92
2022/10/01 05:46:02;;;;;;;8.05;6.53;;;12.10;99.90;;;;;;6014562;23;20015;-89
2022/10/01 05:48:32;;;;;;;8.50;6.72;;;12.10;99.90;;;;;;6021549;23;20012;-88
2022/10/01 05:50:58;;;;;;;8.73;7.07;;;12.00;99.90;;;;;;6008729;23;20706;-90
2022/10/01 05:53:24;;;;;;;10.00;7.03;;;12.10;99.90;;;;;;6006272;23;20047;-91
2022/10/01 05:55:50;;;;;;;9.07;7.80;;;12.10;99.90;;;;;;5982976;23;20087;-91
2022/10/01 05:58:16;;;;;;;8.80;7.60;;;12.20;99.90;;;;;;6005538;23;20020;-92
2022/10/01 06:00:42;;;;;;;10.30;7.70;;;12.20;99.90;;;;;;6003824;23;20014;-89
2022/10/01 06:03:11;;;;;;;9.63;7.60;;;12.20;99.90;;;;;;6003728;23;20020;-89
2022/10/01 06:05:37;;;;;;;10.70;7.68;;;12.20;99.90;;;;;;5981308;23;20035;-89
2022/10/01 06:08:08;;;;;;;10.60;8.98;;;12.30;99.90;;;;;;6003582;23;20019;-91
2022/10/01 06:10:35;;;;;;;;;;;12.30;99.90;;;;;;6003803;23;20019;-89
2022/10/01 06:13:04;;;;;;;10.55;8.65;;;12.30;99.90;;;;;;6005456;23;19993;-89
2022/10/01 06:15:33;;;;;;;10.30;8.45;;;12.20;99.90;;;;;;6003998;23;20068;-87
2022/10/01 06:18:05;;;;;;;10.57;9.07;;;12.30;99.90;;;;;;6005363;23;20023;-90
2022/10/01 06:20:31;;;;;;;11.50;9.77;;;12.30;99.90;;;;;;6003533;23;20345;-90
2022/10/01 06:22:57;;;;;;;12.63;10.63;;;12.40;99.90;;;;;;6003784;23;20106;-88
2022/10/01 06:25:24;;;;;;;11.52;10.30;;;12.40;99.90;;;;;;6004757;23;20015;-90
2022/10/01 06:27:56;;;;;;;12.30;10.30;;;12.40;99.90;;;;;;6003154;23;20387;-89
2022/10/01 06:30:25;;;;;;;12.20;10.90;;;12.40;99.90;;;;;;6004375;23;20023;-89
2022/10/01 06:32:52;;;;;;;13.70;12.07;;;12.50;99.90;;;;;;6005821;23;20034;-90
2022/10/01 06:35:21;;;;;;;13.27;11.88;;;12.50;99.90;;;;;;6004754;23;20403;-91
2022/10/01 06:37:46;;;;;;;12.65;11.35;;;12.50;99.90;;;;;;6002725;23;20031;-90
2022/10/01 06:40:12;;;;;;;13.35;11.68;;;12.60;99.90;;;;;;6006980;23;20016;-89
2022/10/01 06:42:38;;;;;;;12.80;11.50;;;12.60;99.90;;;;;;6004710;23;20771;-88
2022/10/01 06:45:04;;;;;;;15.23;13.48;;;12.60;99.90;;;;;;6006940;23;20586;-89
2022/10/01 06:47:29;;;;;;;15.85;13.98;;;12.60;99.90;;;;;;6007444;23;20044;-89
2022/10/01 06:49:55;;;;;;;14.60;13.02;;;12.80;99.90;;;;;;6006144;23;20015;-89
2022/10/01 06:55:06;;;;;;;15.40;13.80;;;12.70;99.90;;;;;;6023685;23;20023;-89
2022/10/01 06:57:33;;;;;;;15.15;13.52;;;12.80;99.90;;;;;;6026277;23;20029;-90
2022/10/01 06:59:58;;;;;;;15.10;13.57;;;12.90;99.90;;;;;;6013285;23;20027;-90
2022/10/01 07:02:27;;;;;;;14.65;12.80;;;12.90;99.90;;;;;;6008914;23;20016;-90
2022/10/01 07:04:59;;;;;;;14.63;12.75;;;12.80;99.90;;;;;;6001013;23;20019;-90
2022/10/01 07:07:29;;;;;;;16.85;14.40;;;12.90;99.90;;;;;;6003166;23;20023;-90
2022/10/01 07:09:57;;;;;;;15.23;13.63;;;13.00;99.90;;;;;;6003528;23;20022;-88
2022/10/01 07:12:22;;;;;;;15.07;13.40;;;13.00;99.90;;;;;;6001121;23;20031;-87
2022/10/01 07:14:48;;;;;;;15.65;13.95;;;13.10;99.90;;;;;;5979388;23;20031;-88
2022/10/01 07:17:14;;;;;;;15.30;13.48;;;13.20;99.90;;;;;;6004757;23;20252;-90
2022/10/01 07:19:39;;;;;;;16.75;13.65;;;13.30;99.90;;;;;;6002442;23;20084;-88
2022/10/01 07:22:05;;;;;;;15.23;13.35;;;13.30;99.90;;;;;;6002675;23;20018;-90
2022/10/01 07:24:30;;;;;;;15.98;12.95;;;13.40;99.90;;;;;;6001640;23;20455;-87
2022/10/01 07:26:56;;;;;;;14.52;12.82;;;13.40;99.90;;;;;;6002854;23;20051;-89
2022/10/01 07:29:22;;;;;;;15.15;12.90;;;13.50;99.90;;;;;;5978399;23;20086;-89
2022/10/01 07:31:58;;;;;;;14.82;11.70;;;13.40;99.90;;;;;;6002048;23;20110;-89
2022/10/01 07:34:25;;;;;;;15.15;11.30;;;13.40;99.90;;;;;;6001638;23;20035;-90
2022/10/01 07:36:51;;;;;;;14.57;11.20;;;13.40;99.90;;;;;;6003657;23;20027;-90
2022/10/01 07:39:16;;;;;;;13.55;11.13;;;13.40;99.90;;;;;;6004549;23;20020;-89
2022/10/01 07:41:42;;;;;;;13.05;10.93;;;13.50;99.90;;;;;;6004677;23;20022;-91
2022/10/01 07:44:10;;;;;;;15.27;11.65;;;13.50;99.90;;;;;;6002285;23;20030;-88
2022/10/01 07:46:37;;;;;;;13.98;11.23;;;13.50;99.90;;;;;;6001791;23;20031;-90
2022/10/01 07:49:03;;;;;;;14.95;11.65;;;13.50;99.90;;;;;;6002048;23;20087;-89
2022/10/01 07:51:29;;;;;;;13.90;12.23;;;13.60;99.90;;;;;;6004694;23;20040;-90
2022/10/01 07:53:54;;;;;;;15.35;11.25;;;13.70;99.90;;;;;;6003182;23;20023;-89
2022/10/01 07:56:21;;;;;;;13.98;11.45;;;13.80;99.90;;;;;;6004995;23;20086;-91
2022/10/01 07:58:46;;;;;;;14.38;11.82;;;13.90;99.90;;;;;;6008449;23;20019;-87
2022/10/01 08:01:12;;;;;;;15.88;11.25;;;13.90;99.90;;;;;;6022502;23;20084;-89
2022/10/01 08:03:37;;;;;;;13.02;11.02;;;13.90;99.90;;;;;;6011940;23;20031;-90
2022/10/01 08:06:05;;;;;;;13.75;10.50;;;13.90;99.90;;;;;;6005349;23;20020;-91
2022/10/01 08:08:32;;;;;;;16.02;10.20;;;13.80;99.90;;;;;;6006065;23;20012;-90
2022/10/01 08:11:01;;;;;;;12.38;10.43;;;13.90;99.90;;;;;;6006443;23;20019;-92
2022/10/01 08:13:27;;;;;;;16.05;10.23;;;13.90;99.90;;;;;;6005902;23;20417;-90
2022/10/01 08:15:53;;;;;;;14.93;10.15;;;14.00;99.90;;;;;;6006353;23;20046;-91
2022/10/01 08:18:20;;;;;;;14.38;9.45;;;13.90;99.90;;;;;;5982024;23;20043;-91
2022/10/01 08:20:46;;;;;;;16.98;9.48;;;13.90;99.90;;;;;;6006094;23;20083;-92
2022/10/01 08:23:14;;;;;;;15.50;9.00;;;14.00;99.90;;;;;;6004476;23;20016;-90
2022/10/01 08:25:41;;;;;;;13.30;8.20;;;14.10;99.90;;;;;;6007053;23;20008;-90
2022/10/01 08:28:09;;;;;;;14.93;7.60;;;14.20;99.90;;;;;;6005873;23;20363;-90
2022/10/01 08:30:38;;;;;;;11.82;6.47;;;14.20;99.90;;;;;;6004823;23;20030;-92
2022/10/01 08:33:04;;;;;;;13.95;6.38;;;14.30;99.90;;;;;;6005060;23;20319;-90
2022/10/01 08:35:30;;;;;;;14.38;6.00;;;14.30;99.90;;;;;;6028689;23;20022;-89
2022/10/01 08:38:06;;;;;;;12.43;5.68;;;14.30;99.90;;;;;;6007574;23;20103;-90
2022/10/01 08:40:37;;;;;;;12.38;5.10;;;14.50;99.90;;;;;;6004004;23;20111;-88
2022/10/01 08:43:24;;;;;;;13.27;5.05;;;14.50;99.90;;;;;;6008888;23;20086;-90
2022/10/01 08:45:53;;;;;;;13.65;4.90;;;14.50;99.90;;;;;;5994955;23;20123;-89
2022/10/01 08:48:36;;;;;;;11.75;4.28;;;14.50;99.90;;;;;;6006995;23;20020;-90
2022/10/01 08:51:26;;;;;;;9.90;3.80;;;14.60;99.90;;;;;;6005905;23;20019;-92
2022/10/01 08:54:18;;;;;;;14.73;4.00;;;14.60;99.90;;;;;;5980028;23;20016;-92
2022/10/01 08:56:46;;;;;;;12.40;4.15;;;14.70;99.90;;;;;;5917463;24;20254;-88
2022/10/01 08:59:41;;;;;;;11.25;4.03;;;14.80;99.90;;;;;;5897949;24;20025;-91
2022/10/01 09:02:40;;;;;;;11.85;3.53;;;15.00;99.90;;;;;;5898183;24;20321;-91
2022/10/01 09:05:15;;;;;;;12.63;3.90;;;15.00;99.90;;;;;;5899627;24;20138;-90
2022/10/01 09:07:46;;;;;;;11.65;3.17;;;15.10;99.90;;;;;;5898513;24;20025;-88
2022/10/01 09:10:47;;;;;;;11.68;3.20;;;15.10;99.90;;;;;;5898269;24;20167;-87
2022/10/01 09:13:38;;;;;;;9.05;3.90;;;15.00;99.90;;;;;;5918768;24;20017;-90
2022/10/01 09:16:12;;;;;;;9.70;2.70;;;14.80;99.90;;;;;;5920977;24;20672;-91
2022/10/01 09:18:59;;;;;;;14.30;2.83;;;14.90;99.90;;;;;;5918707;24;20021;-89
2022/10/01 09:21:34;;;;;;;12.57;3.38;;;14.80;99.90;;;;;;5919762;24;20049;-88
2022/10/01 09:24:09;;;;;;;9.05;2.35;;;14.80;99.90;;;;;;5896400;24;20099;-89
2022/10/01 09:26:37;;;;;;;9.13;3.00;;;14.80;99.90;;;;;;5893440;24;20064;-90
2022/10/01 09:29:12;;;;;;;8.18;2.30;;;14.80;99.90;;;;;;5893585;24;20073;-90
2022/10/01 09:31:46;;;;;;;7.28;1.83;;;14.90;99.90;;;;;;5895019;24;20058;-91
2022/10/01 09:34:14;;;;;;;8.82;2.03;;;14.90;99.90;;;;;;5969247;23;20031;-90
2022/10/01 09:37:19;;;;;;;7.18;1.60;;;15.00;99.90;;;;;;6006479;23;20027;-91
2022/10/01 09:40:18;;;;;;;6.38;1.60;;;15.10;99.90;;;;;;6002276;23;20020;-90
2022/10/01 09:42:44;;;;;;;7.35;1.50;;;15.20;99.90;;;;;;6003501;23;20079;-89
2022/10/01 09:45:14;;;;;;;6.82;1.70;;;15.30;99.90;;;;;;6004328;23;20020;-93
2022/10/01 09:47:45;;;;;;;7.35;1.80;;;15.40;99.90;;;;;;6004731;23;20022;-92
2022/10/01 09:50:15;;;;;;;6.10;1.48;;;15.50;99.90;;;;;;6004580;23;20020;-91
2022/10/01 09:52:42;;;;;;;7.72;1.52;;;15.60;99.90;;;;;;6004515;23;20051;-91
2022/10/01 09:55:20;;;;;;;6.35;1.40;;;15.60;99.90;;;;;;6007311;23;20011;-92
2022/10/01 09:57:52;;;;;;;6.32;1.45;;;15.50;99.90;;;;;;6006488;23;20016;-90
2022/10/01 10:00:23;;;;;;;6.25;1.55;;;15.50;99.90;;;;;;6004006;23;20043;-93
2022/10/01 10:02:50;;;;;;;6.50;1.65;;;15.40;99.90;;;;;;6001641;23;20457;-89
2022/10/01 10:05:19;;;;;;;10.73;2.10;;;15.20;99.90;;;;;;6002572;23;20110;-89
2022/10/01 10:07:58;;;;;;;7.20;1.25;;;15.00;99.90;;;;;;6005636;23;20016;-92
2022/10/01 10:10:35;;;;;;;6.03;1.50;;;14.80;99.90;;;;;;6008639;23;20016;-91
2022/10/01 10:13:16;;;;;;;6.10;1.60;;;14.70;99.90;;;;;;6003395;23;20026;-91
2022/10/01 10:15:49;;;;;;;7.05;1.42;;;14.50;99.90;;;;;;6043974;23;20048;-92
2022/10/01 10:18:16;;;;;;;8.40;1.80;;;14.40;99.90;;;;;;6052490;23;20018;-91
2022/10/01 10:20:51;;;;;;;4.60;1.30;;;14.40;99.90;;;;;;6006851;23;20046;-90
2022/10/01 10:23:20;;;;;;;6.40;1.60;;;14.60;99.90;;;;;;6006822;23;20012;-90
2022/10/01 10:26:03;;;;;;;4.65;1.30;;;14.70;99.90;;;;;;6006914;23;20099;-91
2022/10/01 10:28:40;;;;;;;6.70;1.65;;;14.90;99.90;;;;;;5981736;23;20019;-91
2022/10/01 10:31:14;;;;;;;8.27;1.85;;;15.00;99.90;;;;;;6005393;23;20425;-91
2022/10/01 10:33:46;;;;;;;8.02;1.98;;;15.10;99.90;;;;;;6004937;23;20030;-93
2022/10/01 10:36:15;;;;;;;9.75;1.95;;;15.10;99.90;;;;;;6008400;23;20079;-93
2022/10/01 10:38:44;;;;;;;7.60;2.20;;;15.20;99.90;;;;;;6029980;23;20012;-92
2022/10/01 10:41:15;;;;;;;8.50;1.80;;;15.20;99.90;;;;;;6003288;23;20068;-92
2022/10/01 10:43:43;;;;;;;11.82;2.38;;;15.10;99.90;;;;;;6003249;23;20039;-91
2022/10/01 10:46:09;;;;;;;10.23;3.25;;;15.00;99.90;;;;;;6004991;23;20023;-90
2022/10/01 10:48:42;;;;;;;8.43;2.20;;;15.00;99.90;;;;;;6001768;23;20383;-88
2022/10/01 10:51:09;;;;;;;6.78;2.08;;;14.80;99.90;;;;;;6004255;23;20027;-89
2022/10/01 10:53:43;;;;;;;11.90;2.40;;;14.60;99.90;;;;;;6004721;23;20016;-87
2022/10/01 10:56:21;;;;;;;5.80;1.38;;;14.40;99.90;;;;;;6007606;23;20019;-93
2022/10/01 10:58:49;;;;;;;7.25;2.08;;;14.20;99.90;;;;;;6007929;23;20051;-91
2022/10/01 11:01:38;;;;;;;5.05;1.40;;;13.90;99.90;;;;;;6009378;23;20421;-92
2022/10/01 11:04:20;;;;;;;7.85;1.45;;;13.80;99.90;;;;;;6007972;23;20133;-94
2022/10/01 11:07:02;;;;;;;5.95;1.50;;;13.60;99.90;;;;;;6007753;23;20019;-95
2022/10/01 11:09:42;;;;;;;4.82;1.40;;;13.50;99.90;;;;;;6012549;23;20063;-92
2022/10/01 11:12:37;;;;;;;8.23;1.70;;;13.50;99.90;;;;;;6004925;23;20018;-91
2022/10/01 11:15:28;;;;;;;8.00;1.90;;;13.60;99.90;;;;;;5994590;23;20024;-95
2022/10/01 11:18:31;;;;;;;7.85;1.90;;;13.60;99.90;;;;;;5981439;23;20070;-90
2022/10/01 11:21:18;;;;;;;9.55;1.98;;;13.70;99.90;;;;;;6004757;23;20052;-91
2022/10/01 11:23:50;;;;;;;8.88;1.92;;;13.80;99.90;;;;;;6004065;23;20019;-95
2022/10/01 11:26:22;;;;;;;8.07;1.90;;;13.80;99.90;;;;;;6005332;23;20026;-92
2022/10/01 11:29:24;;;;;;;8.85;2.15;;;13.80;99.90;;;;;;5978172;23;20015;-90
2022/10/01 11:32:08;;;;;;;9.40;2.55;;;13.80;99.90;;;;;;5998871;23;20361;-92
2022/10/01 11:34:49;;;;;;;13.18;4.50;;;13.90;99.90;;;;;;6003610;23;20030;-90
2022/10/01 11:37:40;;;;;;;10.57;2.55;;;13.90;99.90;;;;;;5977331;23;20032;-89
2022/10/01 11:40:23;;;;;;;;;;;14.00;99.90;;;;;;5982179;23;20083;-90
2022/10/01 11:42:52;;;;;;;7.93;2.00;;;14.00;99.90;;;;;;6026212;23;19963;-89
2022/10/01 11:45:22;;;;;;;11.23;2.88;;;14.10;99.90;;;;;;6025537;23;20023;-90
2022/10/01 11:48:15;;;;;;;8.25;2.22;;;14.10;99.90;;;;;;6003504;23;20016;-91
2022/10/01 11:50:45;;;;;;;8.15;1.85;;;14.10;99.90;;;;;;5974311;23;20112;-92
2022/10/01 11:53:29;;;;;;;7.67;2.40;;;14.10;99.90;;;;;;6003840;23;20366;-90
2022/10/01 11:59:08;;;;;;;10.30;1.92;;;14.20;99.90;;;;;;6012237;23;20102;-94
2022/10/01 12:02:02;;;;;;;8.30;2.30;;;14.20;99.90;;;;;;5986091;23;20019;-96
2022/10/01 12:04:56;;;;;;;10.65;2.20;;;14.20;99.90;;;;;;6031477;23;20012;-94
2022/10/01 12:07:58;;;;;;;11.70;2.70;;;14.30;99.90;;;;;;6030449;23;20338;-93
2022/10/01 12:10:24;;;;;;;10.23;2.72;;;14.30;99.90;;;;;;6005536;23;20402;-94
2022/10/01 12:13:11;;;;;;;12.13;2.80;;;14.50;99.90;;;;;;5983479;23;20076;-94
2022/10/01 12:15:43;;;;;;;11.20;2.72;;;14.60;99.90;;;;;;6006544;23;20016;-94
2022/10/01 12:18:19;;;;;;;12.43;2.92;;;14.70;99.90;;;;;;6006485;23;20027;-93
2022/10/01 12:20:50;;;;;;;10.70;3.05;;;14.80;99.90;;;;;;5981595;23;20170;-95
2022/10/01 12:23:21;;;;;;;11.90;3.63;;;15.00;99.90;;;;;;6004616;23;20051;-93
2022/10/01 12:26:20;;;;;;;14.00;2.97;;;15.10;99.90;;;;;;6030141;23;20087;-94
2022/10/01 12:29:01;;;;;;;11.07;3.38;;;15.10;99.90;;;;;;6008040;23;20020;-93
2022/10/01 12:31:40;;;;;;;11.77;3.30;;;15.10;99.90;;;;;;6007391;23;20031;-90
2022/10/01 12:34:15;;;;;;;14.57;3.20;;;15.00;99.90;;;;;;6024663;23;20020;-89
2022/10/01 12:37:12;;;;;;;11.23;3.13;;;14.90;99.90;;;;;;6005628;23;20034;-91
2022/10/01 12:39:53;;;;;;;10.95;2.88;;;14.80;99.90;;;;;;6002741;23;20020;-88
2022/10/01 12:42:40;;;;;;;12.05;3.08;;;14.70;99.90;;;;;;6003601;23;20091;-89
2022/10/01 12:45:44;;;;;;;13.05;3.50;;;14.60;99.90;;;;;;6007871;23;20048;-89
2022/10/01 12:48:20;;;;;;;14.07;3.88;;;14.60;99.90;;;;;;6009023;23;20020;-89
2022/10/01 12:51:24;;;;;;;12.10;3.42;;;14.60;99.90;;;;;;6004743;23;20015;-89
2022/10/01 12:54:16;;;;;;;10.88;2.85;;;14.60;99.90;;;;;;5980666;23;20126;-91
2022/10/01 12:56:57;;;;;;;14.90;3.10;;;14.60;99.90;;;;;;6004992;23;20031;-91
2022/10/01 12:59:48;;;;;;;10.13;3.17;;;14.60;99.90;;;;;;6005080;23;20098;-92
2022/10/01 13:02:38;;;;;;;11.35;3.40;;;14.60;99.90;;;;;;6006172;23;20030;-92
2022/10/01 13:05:25;;;;;;;11.43;3.63;;;14.50;99.90;;;;;;6005527;23;20016;-92
2022/10/01 13:08:16;;;;;;;14.63;3.40;;;14.50;99.90;;;;;;5982402;23;20019;-92
2022/10/01 13:10:42;;;;;;;14.15;4.60;;;14.40;99.90;;;;;;6003751;23;20020;-93